sensor_id;sensor_type;location;lat;lon;timestamp;P1;durP1;ratioP1;P2;durP2;ratioP2
13477;SDS011;12598;62.382;17.344;2022-11-20T00:00:47;2.50;;;2.30;;
13477;SDS011;12598;62.382;17.344;2022-11-20T00:01:49;2.40;;;2.20;;
13477;SDS011;12598;62.382;17.344;2022-11-20T00:02:50;2.65;;;2.45;;
13477;SDS011;12598;62.382;17.344;2022-11-20T00:03:53;2.30;;;2.20;;
13477;SDS011;12598;62.382;17.344;2022-11-20T00:04:56;2.70;;;2.50;;
13477;SDS011;12598;62.382;17.344;2022-11-20T00:05:59;2.30;;;2.15;;
13477;SDS011;12598;62.382;17.344;2022-11-20T00:07:02;2.80;;;2.30;;
13477;SDS011;12598;62.382;17.344;2022-11-20T00:08:04;2.80;;;2.60;;
13477;SDS011;12598;62.382;17.344;2022-11-20T00:09:06;2.47;;;2.28;;
13477;SDS011;12598;62.382;17.344;2022-11-20T00:10:08;2.90;;;2.70;;
13477;SDS011;12598;62.382;17.344;2022-11-20T00:11:11;2.22;;;2.10;;
13477;SDS011;12598;62.382;17.344;2022-11-20T00:12:17;2.50;;;2.30;;
13477;SDS011;12598;62.382;17.344;2022-11-20T00:13:19;2.72;;;2.53;;
13477;SDS011;12598;62.382;17.344;2022-11-20T00:14:20;2.85;;;2.53;;
13477;SDS011;12598;62.382;17.344;2022-11-20T00:15:22;2.53;;;2.33;;
13477;SDS011;12598;62.382;17.344;2022-11-20T00:16:25;2.33;;;2.13;;
13477;SDS011;12598;62.382;17.344;2022-11-20T00:17:28;2.75;;;2.55;;
13477;SDS011;12598;62.382;17.344;2022-11-20T00:18:30;2.63;;;2.42;;
13477;SDS011;12598;62.382;17.344;2022-11-20T00:19:33;2.92;;;2.63;;
13477;SDS011;12598;62.382;17.344;2022-11-20T00:20:35;2.55;;;2.35;;
13477;SDS011;12598;62.382;17.344;2022-11-20T00:21:37;2.47;;;2.28;;
13477;SDS011;12598;62.382;17.344;2022-11-20T00:22:38;2.80;;;2.60;;
13477;SDS011;12598;62.382;17.344;2022-11-20T00:23:41;2.58;;;2.38;;
13477;SDS011;12598;62.382;17.344;2022-11-20T00:24:43;2.65;;;2.45;;
13477;SDS011;12598;62.382;17.344;2022-11-20T00:25:45;2.63;;;2.42;;
13477;SDS011;12598;62.382;17.344;2022-11-20T00:26:47;2.42;;;2.22;;
13477;SDS011;12598;62.382;17.344;2022-11-20T00:27:49;2.70;;;2.50;;
13477;SDS011;12598;62.382;17.344;2022-11-20T00:28:56;2.28;;;2.10;;
13477;SDS011;12598;62.382;17.344;2022-11-20T00:30:01;2.50;;;2.30;;
13477;SDS011;12598;62.382;17.344;2022-11-20T00:31:04;2.70;;;2.50;;
13477;SDS011;12598;62.382;17.344;2022-11-20T00:32:08;2.63;;;2.42;;
13477;SDS011;12598;62.382;17.344;2022-11-20T00:33:10;2.65;;;2.45;;
13477;SDS011;12598;62.382;17.344;2022-11-20T00:34:12;2.78;;;2.58;;
13477;SDS011;12598;62.382;17.344;2022-11-20T00:35:13;2.47;;;2.28;;
13477;SDS011;12598;62.382;17.344;2022-11-20T00:36:16;2.53;;;2.33;;
13477;SDS011;12598;62.382;17.344;2022-11-20T00:37:19;2.50;;;2.30;;
13477;SDS011;12598;62.382;17.344;2022-11-20T00:38:21;2.22;;;2.03;;
13477;SDS011;12598;62.382;17.344;2022-11-20T00:39:23;2.30;;;2.10;;
13477;SDS011;12598;62.382;17.344;2022-11-20T00:40:25;2.53;;;2.33;;
13477;SDS011;12598;62.382;17.344;2022-11-20T00:41:27;2.50;;;2.30;;
13477;SDS011;12598;62.382;17.344;2022-11-20T00:42:30;2.47;;;2.28;;
13477;SDS011;12598;62.382;17.344;2022-11-20T00:43:34;2.42;;;2.22;;
13477;SDS011;12598;62.382;17.344;2022-11-20T00:44:36;2.40;;;2.20;;
13477;SDS011;12598;62.382;17.344;2022-11-20T00:45:37;2.50;;;2.30;;
13477;SDS011;12598;62.382;17.344;2022-11-20T00:46:39;1.95;;;1.85;;
13477;SDS011;12598;62.382;17.344;2022-11-20T00:47:41;2.50;;;2.30;;
13477;SDS011;12598;62.382;17.344;2022-11-20T00:48:43;2.20;;;2.10;;
13477;SDS011;12598;62.382;17.344;2022-11-20T00:49:45;2.35;;;2.20;;
13477;SDS011;12598;62.382;17.344;2022-11-20T00:50:47;2.47;;;2.28;;
13477;SDS011;12598;62.382;17.344;2022-11-20T00:51:49;2.30;;;2.20;;
13477;SDS011;12598;62.382;17.344;2022-11-20T00:52:51;3.13;;;2.45;;
13477;SDS011;12598;62.382;17.344;2022-11-20T00:53:57;2.15;;;2.05;;
13477;SDS011;12598;62.382;17.344;2022-11-20T00:55:01;2.60;;;2.40;;
13477;SDS011;12598;62.382;17.344;2022-11-20T00:56:06;2.50;;;2.30;;
13477;SDS011;12598;62.382;17.344;2022-11-20T00:57:11;2.60;;;2.40;;
13477;SDS011;12598;62.382;17.344;2022-11-20T00:58:13;2.25;;;2.05;;
13477;SDS011;12598;62.382;17.344;2022-11-20T00:59:14;2.47;;;2.28;;
13477;SDS011;12598;62.382;17.344;2022-11-20T01:00:16;2.83;;;2.63;;
13477;SDS011;12598;62.382;17.344;2022-11-20T01:01:19;2.60;;;2.40;;
13477;SDS011;12598;62.382;17.344;2022-11-20T01:02:23;2.53;;;2.33;;
13477;SDS011;12598;62.382;17.344;2022-11-20T01:03:25;2.45;;;2.25;;
13477;SDS011;12598;62.382;17.344;2022-11-20T01:04:27;2.38;;;2.17;;
13477;SDS011;12598;62.382;17.344;2022-11-20T01:05:29;2.17;;;2.08;;
13477;SDS011;12598;62.382;17.344;2022-11-20T01:06:36;2.00;;;1.90;;
13477;SDS011;12598;62.382;17.344;2022-11-20T01:07:40;2.40;;;2.20;;
13477;SDS011;12598;62.382;17.344;2022-11-20T01:08:42;2.60;;;2.40;;
13477;SDS011;12598;62.382;17.344;2022-11-20T01:09:44;2.20;;;2.10;;
13477;SDS011;12598;62.382;17.344;2022-11-20T01:10:45;2.13;;;2.03;;
13477;SDS011;12598;62.382;17.344;2022-11-20T01:11:47;2.10;;;1.98;;
13477;SDS011;12598;62.382;17.344;2022-11-20T01:12:49;2.63;;;2.42;;
13477;SDS011;12598;62.382;17.344;2022-11-20T01:14:12;3.03;;;2.83;;
13477;SDS011;12598;62.382;17.344;2022-11-20T01:15:19;2.60;;;2.40;;
13477;SDS011;12598;62.382;17.344;2022-11-20T01:16:28;2.80;;;2.60;;
13477;SDS011;12598;62.382;17.344;2022-11-20T01:17:34;2.78;;;2.58;;
13477;SDS011;12598;62.382;17.344;2022-11-20T01:18:37;2.47;;;2.30;;
13477;SDS011;12598;62.382;17.344;2022-11-20T01:19:40;3.30;;;3.10;;
13477;SDS011;12598;62.382;17.344;2022-11-20T01:20:41;3.47;;;3.17;;
13477;SDS011;12598;62.382;17.344;2022-11-20T01:21:43;3.85;;;3.55;;
13477;SDS011;12598;62.382;17.344;2022-11-20T01:22:46;3.55;;;3.25;;
13477;SDS011;12598;62.382;17.344;2022-11-20T01:23:48;3.97;;;3.65;;
13477;SDS011;12598;62.382;17.344;2022-11-20T01:24:51;3.40;;;3.20;;
13477;SDS011;12598;62.382;17.344;2022-11-20T01:25:52;3.67;;;3.38;;
13477;SDS011;12598;62.382;17.344;2022-11-20T01:26:54;4.00;;;3.70;;
13477;SDS011;12598;62.382;17.344;2022-11-20T01:27:56;3.85;;;3.53;;
13477;SDS011;12598;62.382;17.344;2022-11-20T01:28:58;3.60;;;3.30;;
13477;SDS011;12598;62.382;17.344;2022-11-20T01:30:00;3.67;;;3.38;;
13477;SDS011;12598;62.382;17.344;2022-11-20T01:31:10;4.05;;;3.40;;
13477;SDS011;12598;62.382;17.344;2022-11-20T01:32:16;3.67;;;3.38;;
13477;SDS011;12598;62.382;17.344;2022-11-20T01:33:18;3.65;;;3.38;;
13477;SDS011;12598;62.382;17.344;2022-11-20T01:34:20;3.65;;;3.35;;
13477;SDS011;12598;62.382;17.344;2022-11-20T01:35:23;3.50;;;3.20;;
13477;SDS011;12598;62.382;17.344;2022-11-20T01:36:26;3.17;;;2.90;;
13477;SDS011;12598;62.382;17.344;2022-11-20T01:37:29;3.42;;;3.10;;
13477;SDS011;12598;62.382;17.344;2022-11-20T01:38:31;3.40;;;3.20;;
13477;SDS011;12598;62.382;17.344;2022-11-20T01:39:32;3.15;;;2.95;;
13477;SDS011;12598;62.382;17.344;2022-11-20T01:40:34;3.53;;;3.22;;
13477;SDS011;12598;62.382;17.344;2022-11-20T01:41:36;3.08;;;2.88;;
13477;SDS011;12598;62.382;17.344;2022-11-20T01:43:06;3.08;;;2.78;;
13477;SDS011;12598;62.382;17.344;2022-11-20T01:45:56;3.28;;;3.00;;
13477;SDS011;12598;62.382;17.344;2022-11-20T01:47:02;3.03;;;2.83;;
13477;SDS011;12598;62.382;17.344;2022-11-20T01:48:07;2.83;;;2.63;;
13477;SDS011;12598;62.382;17.344;2022-11-20T01:50:26;2.65;;;2.45;;
13477;SDS011;12598;62.382;17.344;2022-11-20T01:51:38;2.60;;;2.40;;
13477;SDS011;12598;62.382;17.344;2022-11-20T01:52:46;2.72;;;2.53;;
13477;SDS011;12598;62.382;17.344;2022-11-20T01:53:52;2.88;;;2.67;;
13477;SDS011;12598;62.382;17.344;2022-11-20T01:55:07;2.42;;;2.22;;
13477;SDS011;12598;62.382;17.344;2022-11-20T01:56:12;2.38;;;2.17;;
13477;SDS011;12598;62.382;17.344;2022-11-20T01:57:16;2.80;;;2.60;;
13477;SDS011;12598;62.382;17.344;2022-11-20T01:58:22;2.28;;;2.08;;
13477;SDS011;12598;62.382;17.344;2022-11-20T01:59:28;2.42;;;2.22;;
13477;SDS011;12598;62.382;17.344;2022-11-20T02:00:31;2.40;;;2.30;;
13477;SDS011;12598;62.382;17.344;2022-11-20T02:01:33;2.55;;;2.35;;
13477;SDS011;12598;62.382;17.344;2022-11-20T02:02:35;2.22;;;2.08;;
13477;SDS011;12598;62.382;17.344;2022-11-20T02:03:38;2.10;;;1.90;;
13477;SDS011;12598;62.382;17.344;2022-11-20T02:04:39;2.58;;;2.38;;
13477;SDS011;12598;62.382;17.344;2022-11-20T02:05:44;1.90;;;1.80;;
13477;SDS011;12598;62.382;17.344;2022-11-20T02:06:53;2.17;;;2.03;;
13477;SDS011;12598;62.382;17.344;2022-11-20T02:08:00;2.00;;;1.90;;
13477;SDS011;12598;62.382;17.344;2022-11-20T02:09:05;2.50;;;2.30;;
13477;SDS011;12598;62.382;17.344;2022-11-20T02:10:07;2.17;;;1.98;;
13477;SDS011;12598;62.382;17.344;2022-11-20T02:11:08;2.13;;;2.03;;
13477;SDS011;12598;62.382;17.344;2022-11-20T02:12:12;2.22;;;1.90;;
13477;SDS011;12598;62.382;17.344;2022-11-20T02:13:33;2.25;;;2.05;;
13477;SDS011;12598;62.382;17.344;2022-11-20T02:14:45;2.30;;;2.10;;
13477;SDS011;12598;62.382;17.344;2022-11-20T02:15:47;2.30;;;2.10;;
13477;SDS011;12598;62.382;17.344;2022-11-20T02:16:49;1.75;;;1.65;;
13477;SDS011;12598;62.382;17.344;2022-11-20T02:17:52;2.40;;;1.90;;
13477;SDS011;12598;62.382;17.344;2022-11-20T02:18:55;2.00;;;1.90;;
13477;SDS011;12598;62.382;17.344;2022-11-20T02:19:58;2.33;;;2.15;;
13477;SDS011;12598;62.382;17.344;2022-11-20T02:21:07;2.30;;;2.10;;
13477;SDS011;12598;62.382;17.344;2022-11-20T02:22:26;1.58;;;1.48;;
13477;SDS011;12598;62.382;17.344;2022-11-20T02:23:39;1.77;;;1.67;;
13477;SDS011;12598;62.382;17.344;2022-11-20T02:24:45;1.88;;;1.77;;
13477;SDS011;12598;62.382;17.344;2022-11-20T02:25:49;1.80;;;1.70;;
13477;SDS011;12598;62.382;17.344;2022-11-20T02:26:53;2.17;;;1.98;;
13477;SDS011;12598;62.382;17.344;2022-11-20T02:27:57;1.70;;;1.60;;
13477;SDS011;12598;62.382;17.344;2022-11-20T02:29:00;1.60;;;1.50;;
13477;SDS011;12598;62.382;17.344;2022-11-20T02:30:04;1.52;;;1.42;;
13477;SDS011;12598;62.382;17.344;2022-11-20T02:31:09;1.63;;;1.33;;
13477;SDS011;12598;62.382;17.344;2022-11-20T02:33:28;1.65;;;1.55;;
13477;SDS011;12598;62.382;17.344;2022-11-20T02:34:30;1.77;;;1.50;;
13477;SDS011;12598;62.382;17.344;2022-11-20T02:36:34;1.42;;;1.33;;
13477;SDS011;12598;62.382;17.344;2022-11-20T02:37:38;1.42;;;1.33;;
13477;SDS011;12598;62.382;17.344;2022-11-20T02:38:42;1.42;;;1.33;;
13477;SDS011;12598;62.382;17.344;2022-11-20T02:39:48;1.50;;;1.40;;
13477;SDS011;12598;62.382;17.344;2022-11-20T02:40:51;1.33;;;1.23;;
13477;SDS011;12598;62.382;17.344;2022-11-20T02:41:56;1.35;;;1.25;;
13477;SDS011;12598;62.382;17.344;2022-11-20T02:42:58;1.55;;;1.40;;
13477;SDS011;12598;62.382;17.344;2022-11-20T02:44:00;1.73;;;1.63;;
13477;SDS011;12598;62.382;17.344;2022-11-20T02:45:03;1.45;;;1.35;;
13477;SDS011;12598;62.382;17.344;2022-11-20T02:46:09;1.65;;;1.40;;
13477;SDS011;12598;62.382;17.344;2022-11-20T02:47:10;1.23;;;1.13;;
13477;SDS011;12598;62.382;17.344;2022-11-20T02:48:12;1.40;;;1.30;;
13477;SDS011;12598;62.382;17.344;2022-11-20T02:49:14;1.45;;;1.35;;
13477;SDS011;12598;62.382;17.344;2022-11-20T02:50:17;1.20;;;1.10;;
13477;SDS011;12598;62.382;17.344;2022-11-20T02:51:20;1.30;;;1.20;;
13477;SDS011;12598;62.382;17.344;2022-11-20T02:52:21;1.00;;;1.00;;
13477;SDS011;12598;62.382;17.344;2022-11-20T02:53:23;1.27;;;1.10;;
13477;SDS011;12598;62.382;17.344;2022-11-20T02:54:25;1.30;;;1.20;;
13477;SDS011;12598;62.382;17.344;2022-11-20T02:55:27;1.25;;;1.15;;
13477;SDS011;12598;62.382;17.344;2022-11-20T02:56:29;1.20;;;1.10;;
13477;SDS011;12598;62.382;17.344;2022-11-20T02:57:30;1.40;;;1.30;;
13477;SDS011;12598;62.382;17.344;2022-11-20T02:58:32;1.10;;;1.00;;
13477;SDS011;12598;62.382;17.344;2022-11-20T02:59:34;0.98;;;0.98;;
13477;SDS011;12598;62.382;17.344;2022-11-20T03:00:36;1.48;;;1.15;;
13477;SDS011;12598;62.382;17.344;2022-11-20T03:01:38;1.45;;;1.30;;
13477;SDS011;12598;62.382;17.344;2022-11-20T03:02:40;1.30;;;1.20;;
13477;SDS011;12598;62.382;17.344;2022-11-20T03:03:42;1.30;;;1.20;;
13477;SDS011;12598;62.382;17.344;2022-11-20T03:04:44;1.42;;;1.20;;
13477;SDS011;12598;62.382;17.344;2022-11-20T03:05:45;1.60;;;1.50;;
13477;SDS011;12598;62.382;17.344;2022-11-20T03:06:47;1.13;;;1.02;;
13477;SDS011;12598;62.382;17.344;2022-11-20T03:07:49;1.35;;;1.25;;
13477;SDS011;12598;62.382;17.344;2022-11-20T03:08:50;1.30;;;1.20;;
13477;SDS011;12598;62.382;17.344;2022-11-20T03:09:52;0.90;;;0.90;;
13477;SDS011;12598;62.382;17.344;2022-11-20T03:10:54;1.20;;;1.10;;
13477;SDS011;12598;62.382;17.344;2022-11-20T03:11:56;1.23;;;1.13;;
13477;SDS011;12598;62.382;17.344;2022-11-20T03:12:57;1.30;;;1.20;;
13477;SDS011;12598;62.382;17.344;2022-11-20T03:14:03;1.20;;;1.10;;
13477;SDS011;12598;62.382;17.344;2022-11-20T03:15:06;1.20;;;1.10;;
13477;SDS011;12598;62.382;17.344;2022-11-20T03:16:09;1.40;;;1.30;;
13477;SDS011;12598;62.382;17.344;2022-11-20T03:17:13;1.67;;;1.20;;
13477;SDS011;12598;62.382;17.344;2022-11-20T03:18:14;1.20;;;1.10;;
13477;SDS011;12598;62.382;17.344;2022-11-20T03:19:16;1.40;;;1.30;;
13477;SDS011;12598;62.382;17.344;2022-11-20T03:20:18;1.20;;;1.10;;
13477;SDS011;12598;62.382;17.344;2022-11-20T03:21:21;1.38;;;1.10;;
13477;SDS011;12598;62.382;17.344;2022-11-20T03:22:23;1.15;;;1.05;;
13477;SDS011;12598;62.382;17.344;2022-11-20T03:23:25;1.05;;;1.00;;
13477;SDS011;12598;62.382;17.344;2022-11-20T03:24:27;1.17;;;1.08;;
13477;SDS011;12598;62.382;17.344;2022-11-20T03:25:28;1.67;;;1.10;;
13477;SDS011;12598;62.382;17.344;2022-11-20T03:26:30;1.20;;;1.10;;
13477;SDS011;12598;62.382;17.344;2022-11-20T03:27:33;1.15;;;1.05;;
13477;SDS011;12598;62.382;17.344;2022-11-20T03:28:35;1.10;;;1.00;;
13477;SDS011;12598;62.382;17.344;2022-11-20T03:29:37;1.10;;;0.93;;
13477;SDS011;12598;62.382;17.344;2022-11-20T03:30:39;3.08;;;0.90;;
13477;SDS011;12598;62.382;17.344;2022-11-20T03:31:41;1.00;;;0.80;;
13477;SDS011;12598;62.382;17.344;2022-11-20T03:32:43;1.10;;;1.00;;
13477;SDS011;12598;62.382;17.344;2022-11-20T03:33:45;1.13;;;1.02;;
13477;SDS011;12598;62.382;17.344;2022-11-20T03:34:46;1.05;;;0.90;;
13477;SDS011;12598;62.382;17.344;2022-11-20T03:35:48;0.70;;;0.70;;
13477;SDS011;12598;62.382;17.344;2022-11-20T03:36:50;0.95;;;0.95;;
13477;SDS011;12598;62.382;17.344;2022-11-20T03:37:51;1.25;;;1.08;;
13477;SDS011;12598;62.382;17.344;2022-11-20T03:38:54;0.90;;;0.73;;
13477;SDS011;12598;62.382;17.344;2022-11-20T03:39:56;0.85;;;0.85;;
13477;SDS011;12598;62.382;17.344;2022-11-20T03:41:02;0.95;;;0.85;;
13477;SDS011;12598;62.382;17.344;2022-11-20T03:42:06;1.20;;;0.88;;
13477;SDS011;12598;62.382;17.344;2022-11-20T03:43:28;0.60;;;0.60;;
13477;SDS011;12598;62.382;17.344;2022-11-20T03:44:30;1.20;;;0.85;;
13477;SDS011;12598;62.382;17.344;2022-11-20T03:45:31;0.80;;;0.70;;
13477;SDS011;12598;62.382;17.344;2022-11-20T03:46:33;0.80;;;0.80;;
13477;SDS011;12598;62.382;17.344;2022-11-20T03:47:35;0.80;;;0.80;;
13477;SDS011;12598;62.382;17.344;2022-11-20T03:48:37;0.70;;;0.70;;
13477;SDS011;12598;62.382;17.344;2022-11-20T03:49:38;0.70;;;0.70;;
13477;SDS011;12598;62.382;17.344;2022-11-20T03:50:40;1.10;;;0.98;;
13477;SDS011;12598;62.382;17.344;2022-11-20T03:51:42;0.80;;;0.80;;
13477;SDS011;12598;62.382;17.344;2022-11-20T03:52:43;0.88;;;0.77;;
13477;SDS011;12598;62.382;17.344;2022-11-20T03:53:46;0.70;;;0.70;;
13477;SDS011;12598;62.382;17.344;2022-11-20T03:54:48;0.85;;;0.68;;
13477;SDS011;12598;62.382;17.344;2022-11-20T03:55:50;0.50;;;0.50;;
13477;SDS011;12598;62.382;17.344;2022-11-20T03:56:52;0.95;;;0.60;;
13477;SDS011;12598;62.382;17.344;2022-11-20T03:57:54;0.60;;;0.60;;
13477;SDS011;12598;62.382;17.344;2022-11-20T03:58:56;0.80;;;0.70;;
13477;SDS011;12598;62.382;17.344;2022-11-20T03:59:58;0.73;;;0.70;;
13477;SDS011;12598;62.382;17.344;2022-11-20T04:01:04;0.60;;;0.60;;
13477;SDS011;12598;62.382;17.344;2022-11-20T04:02:07;0.80;;;0.80;;
13477;SDS011;12598;62.382;17.344;2022-11-20T04:03:09;0.70;;;0.70;;
13477;SDS011;12598;62.382;17.344;2022-11-20T04:04:11;0.70;;;0.68;;
13477;SDS011;12598;62.382;17.344;2022-11-20T04:05:12;0.57;;;0.50;;
13477;SDS011;12598;62.382;17.344;2022-11-20T04:06:16;0.60;;;0.60;;
13477;SDS011;12598;62.382;17.344;2022-11-20T04:07:22;0.60;;;0.60;;
13477;SDS011;12598;62.382;17.344;2022-11-20T04:08:23;0.73;;;0.68;;
13477;SDS011;12598;62.382;17.344;2022-11-20T04:09:25;0.50;;;0.50;;
13477;SDS011;12598;62.382;17.344;2022-11-20T04:10:27;0.70;;;0.70;;
13477;SDS011;12598;62.382;17.344;2022-11-20T04:11:33;0.60;;;0.60;;
13477;SDS011;12598;62.382;17.344;2022-11-20T04:12:37;0.65;;;0.63;;
13477;SDS011;12598;62.382;17.344;2022-11-20T04:13:39;0.80;;;0.50;;
13477;SDS011;12598;62.382;17.344;2022-11-20T04:14:42;0.52;;;0.50;;
13477;SDS011;12598;62.382;17.344;2022-11-20T04:15:44;0.77;;;0.52;;
13477;SDS011;12598;62.382;17.344;2022-11-20T04:16:45;0.60;;;0.60;;
13477;SDS011;12598;62.382;17.344;2022-11-20T04:17:47;0.63;;;0.60;;
13477;SDS011;12598;62.382;17.344;2022-11-20T04:18:56;0.80;;;0.60;;
13477;SDS011;12598;62.382;17.344;2022-11-20T04:19:59;0.82;;;0.45;;
13477;SDS011;12598;62.382;17.344;2022-11-20T04:21:01;0.60;;;0.50;;
13477;SDS011;12598;62.382;17.344;2022-11-20T04:22:03;0.70;;;0.55;;
13477;SDS011;12598;62.382;17.344;2022-11-20T04:23:05;0.50;;;0.50;;
13477;SDS011;12598;62.382;17.344;2022-11-20T04:24:07;0.65;;;0.52;;
13477;SDS011;12598;62.382;17.344;2022-11-20T04:25:09;0.50;;;0.40;;
13477;SDS011;12598;62.382;17.344;2022-11-20T04:26:11;0.70;;;0.57;;
13477;SDS011;12598;62.382;17.344;2022-11-20T04:27:14;0.47;;;0.40;;
13477;SDS011;12598;62.382;17.344;2022-11-20T04:28:15;0.50;;;0.50;;
13477;SDS011;12598;62.382;17.344;2022-11-20T04:29:17;0.55;;;0.50;;
13477;SDS011;12598;62.382;17.344;2022-11-20T04:30:19;0.80;;;0.63;;
13477;SDS011;12598;62.382;17.344;2022-11-20T04:31:22;0.60;;;0.60;;
13477;SDS011;12598;62.382;17.344;2022-11-20T04:32:26;0.80;;;0.60;;
13477;SDS011;12598;62.382;17.344;2022-11-20T04:33:28;0.50;;;0.50;;
13477;SDS011;12598;62.382;17.344;2022-11-20T04:34:34;0.63;;;0.40;;
13477;SDS011;12598;62.382;17.344;2022-11-20T04:35:36;0.60;;;0.50;;
13477;SDS011;12598;62.382;17.344;2022-11-20T04:36:38;0.93;;;0.60;;
13477;SDS011;12598;62.382;17.344;2022-11-20T04:37:40;1.25;;;0.70;;
13477;SDS011;12598;62.382;17.344;2022-11-20T04:38:42;0.40;;;0.40;;
13477;SDS011;12598;62.382;17.344;2022-11-20T04:39:44;0.43;;;0.43;;
13477;SDS011;12598;62.382;17.344;2022-11-20T04:40:46;0.50;;;0.40;;
13477;SDS011;12598;62.382;17.344;2022-11-20T04:41:48;0.55;;;0.30;;
13477;SDS011;12598;62.382;17.344;2022-11-20T04:43:10;0.50;;;0.43;;
13477;SDS011;12598;62.382;17.344;2022-11-20T04:44:11;0.35;;;0.35;;
13477;SDS011;12598;62.382;17.344;2022-11-20T04:45:13;0.40;;;0.35;;
13477;SDS011;12598;62.382;17.344;2022-11-20T04:46:16;0.50;;;0.38;;
13477;SDS011;12598;62.382;17.344;2022-11-20T04:47:18;0.55;;;0.40;;
13477;SDS011;12598;62.382;17.344;2022-11-20T04:48:20;0.40;;;0.40;;
13477;SDS011;12598;62.382;17.344;2022-11-20T04:49:22;0.38;;;0.35;;
13477;SDS011;12598;62.382;17.344;2022-11-20T04:50:25;0.57;;;0.40;;
13477;SDS011;12598;62.382;17.344;2022-11-20T04:51:27;0.80;;;0.52;;
13477;SDS011;12598;62.382;17.344;2022-11-20T04:52:29;0.60;;;0.50;;
13477;SDS011;12598;62.382;17.344;2022-11-20T04:53:30;0.30;;;0.30;;
13477;SDS011;12598;62.382;17.344;2022-11-20T04:54:32;0.73;;;0.60;;
13477;SDS011;12598;62.382;17.344;2022-11-20T04:55:34;0.50;;;0.40;;
13477;SDS011;12598;62.382;17.344;2022-11-20T04:56:36;0.40;;;0.40;;
13477;SDS011;12598;62.382;17.344;2022-11-20T04:57:37;0.40;;;0.40;;
13477;SDS011;12598;62.382;17.344;2022-11-20T04:58:39;0.70;;;0.32;;
13477;SDS011;12598;62.382;17.344;2022-11-20T04:59:41;0.35;;;0.20;;
13477;SDS011;12598;62.382;17.344;2022-11-20T05:00:43;0.40;;;0.38;;
13477;SDS011;12598;62.382;17.344;2022-11-20T05:01:45;0.52;;;0.43;;
13477;SDS011;12598;62.382;17.344;2022-11-20T05:02:47;1.25;;;0.47;;
13477;SDS011;12598;62.382;17.344;2022-11-20T05:03:49;0.40;;;0.40;;
13477;SDS011;12598;62.382;17.344;2022-11-20T05:04:51;0.47;;;0.40;;
13477;SDS011;12598;62.382;17.344;2022-11-20T05:05:52;0.30;;;0.30;;
13477;SDS011;12598;62.382;17.344;2022-11-20T05:06:54;0.35;;;0.30;;
13477;SDS011;12598;62.382;17.344;2022-11-20T05:07:56;1.42;;;0.38;;
13477;SDS011;12598;62.382;17.344;2022-11-20T05:08:59;0.73;;;0.40;;
13477;SDS011;12598;62.382;17.344;2022-11-20T05:10:02;0.60;;;0.30;;
13477;SDS011;12598;62.382;17.344;2022-11-20T05:11:14;0.30;;;0.30;;
13477;SDS011;12598;62.382;17.344;2022-11-20T05:12:18;0.70;;;0.30;;
13477;SDS011;12598;62.382;17.344;2022-11-20T05:13:19;0.40;;;0.30;;
13477;SDS011;12598;62.382;17.344;2022-11-20T05:14:21;0.20;;;0.20;;
13477;SDS011;12598;62.382;17.344;2022-11-20T05:15:23;0.38;;;0.30;;
13477;SDS011;12598;62.382;17.344;2022-11-20T05:16:25;0.43;;;0.35;;
13477;SDS011;12598;62.382;17.344;2022-11-20T05:17:27;0.38;;;0.30;;
13477;SDS011;12598;62.382;17.344;2022-11-20T05:18:29;0.60;;;0.35;;
13477;SDS011;12598;62.382;17.344;2022-11-20T05:19:30;0.40;;;0.40;;
13477;SDS011;12598;62.382;17.344;2022-11-20T05:20:32;0.40;;;0.40;;
13477;SDS011;12598;62.382;17.344;2022-11-20T05:21:34;0.40;;;0.40;;
13477;SDS011;12598;62.382;17.344;2022-11-20T05:22:36;0.30;;;0.25;;
13477;SDS011;12598;62.382;17.344;2022-11-20T05:23:38;0.65;;;0.50;;
13477;SDS011;12598;62.382;17.344;2022-11-20T05:24:40;0.50;;;0.30;;
13477;SDS011;12598;62.382;17.344;2022-11-20T05:25:42;0.43;;;0.30;;
13477;SDS011;12598;62.382;17.344;2022-11-20T05:26:44;0.75;;;0.40;;
13477;SDS011;12598;62.382;17.344;2022-11-20T05:27:46;0.20;;;0.15;;
13477;SDS011;12598;62.382;17.344;2022-11-20T05:28:47;0.38;;;0.32;;
13477;SDS011;12598;62.382;17.344;2022-11-20T05:29:50;0.30;;;0.20;;
13477;SDS011;12598;62.382;17.344;2022-11-20T05:30:52;0.38;;;0.38;;
13477;SDS011;12598;62.382;17.344;2022-11-20T05:31:53;0.35;;;0.30;;
13477;SDS011;12598;62.382;17.344;2022-11-20T05:32:55;0.60;;;0.35;;
13477;SDS011;12598;62.382;17.344;2022-11-20T05:33:57;0.40;;;0.40;;
13477;SDS011;12598;62.382;17.344;2022-11-20T05:34:59;0.47;;;0.32;;
13477;SDS011;12598;62.382;17.344;2022-11-20T05:36:01;0.38;;;0.20;;
13477;SDS011;12598;62.382;17.344;2022-11-20T05:37:06;0.30;;;0.30;;
13477;SDS011;12598;62.382;17.344;2022-11-20T05:38:08;0.65;;;0.40;;
13477;SDS011;12598;62.382;17.344;2022-11-20T05:39:10;0.30;;;0.20;;
13477;SDS011;12598;62.382;17.344;2022-11-20T05:40:12;0.40;;;0.38;;
13477;SDS011;12598;62.382;17.344;2022-11-20T05:41:15;0.38;;;0.38;;
13477;SDS011;12598;62.382;17.344;2022-11-20T05:42:18;0.30;;;0.20;;
13477;SDS011;12598;62.382;17.344;2022-11-20T05:43:32;0.40;;;0.30;;
13477;SDS011;12598;62.382;17.344;2022-11-20T05:44:36;0.30;;;0.30;;
13477;SDS011;12598;62.382;17.344;2022-11-20T05:45:37;0.30;;;0.30;;
13477;SDS011;12598;62.382;17.344;2022-11-20T05:46:40;0.43;;;0.28;;
13477;SDS011;12598;62.382;17.344;2022-11-20T05:47:42;0.40;;;0.38;;
13477;SDS011;12598;62.382;17.344;2022-11-20T05:48:44;0.20;;;0.20;;
13477;SDS011;12598;62.382;17.344;2022-11-20T05:49:46;0.40;;;0.30;;
13477;SDS011;12598;62.382;17.344;2022-11-20T05:50:48;0.30;;;0.30;;
13477;SDS011;12598;62.382;17.344;2022-11-20T05:51:49;0.30;;;0.20;;
13477;SDS011;12598;62.382;17.344;2022-11-20T05:52:51;0.57;;;0.40;;
13477;SDS011;12598;62.382;17.344;2022-11-20T05:53:53;0.47;;;0.40;;
13477;SDS011;12598;62.382;17.344;2022-11-20T05:54:57;0.40;;;0.20;;
13477;SDS011;12598;62.382;17.344;2022-11-20T05:55:59;0.38;;;0.38;;
13477;SDS011;12598;62.382;17.344;2022-11-20T05:57:02;0.30;;;0.30;;
13477;SDS011;12598;62.382;17.344;2022-11-20T05:58:04;0.30;;;0.30;;
13477;SDS011;12598;62.382;17.344;2022-11-20T05:59:05;0.30;;;0.30;;
13477;SDS011;12598;62.382;17.344;2022-11-20T06:00:07;0.43;;;0.22;;
13477;SDS011;12598;62.382;17.344;2022-11-20T06:01:11;0.47;;;0.40;;
13477;SDS011;12598;62.382;17.344;2022-11-20T06:02:24;0.40;;;0.32;;
13477;SDS011;12598;62.382;17.344;2022-11-20T06:03:26;0.32;;;0.25;;
13477;SDS011;12598;62.382;17.344;2022-11-20T06:04:28;0.38;;;0.20;;
13477;SDS011;12598;62.382;17.344;2022-11-20T06:05:30;0.35;;;0.30;;
13477;SDS011;12598;62.382;17.344;2022-11-20T06:06:31;0.40;;;0.30;;
13477;SDS011;12598;62.382;17.344;2022-11-20T06:07:33;0.30;;;0.20;;
13477;SDS011;12598;62.382;17.344;2022-11-20T06:08:35;0.35;;;0.30;;
13477;SDS011;12598;62.382;17.344;2022-11-20T06:09:37;0.30;;;0.20;;
13477;SDS011;12598;62.382;17.344;2022-11-20T06:10:39;0.25;;;0.20;;
13477;SDS011;12598;62.382;17.344;2022-11-20T06:11:40;0.30;;;0.30;;
13477;SDS011;12598;62.382;17.344;2022-11-20T06:12:42;0.40;;;0.25;;
13477;SDS011;12598;62.382;17.344;2022-11-20T06:13:44;0.20;;;0.10;;
13477;SDS011;12598;62.382;17.344;2022-11-20T06:14:47;0.30;;;0.20;;
13477;SDS011;12598;62.382;17.344;2022-11-20T06:15:52;0.20;;;0.20;;
13477;SDS011;12598;62.382;17.344;2022-11-20T06:16:55;0.50;;;0.40;;
13477;SDS011;12598;62.382;17.344;2022-11-20T06:17:56;0.25;;;0.20;;
13477;SDS011;12598;62.382;17.344;2022-11-20T06:19:00;0.40;;;0.35;;
13477;SDS011;12598;62.382;17.344;2022-11-20T06:20:01;0.30;;;0.30;;